sensor_id;sensor_type;location;lat;lon;timestamp;pressure;altitude;pressure_sealevel;temperature;humidity
7018;BME280;3549;42.162;24.726;2023-02-12T00:01:37;47657.47;;;-141.97;44.37
7018;BME280;3549;42.162;24.726;2023-02-12T00:04:03;47669.00;;;-141.97;44.03
7018;BME280;3549;42.162;24.726;2023-02-12T00:06:28;47649.78;;;-141.97;43.35
7018;BME280;3549;42.162;24.726;2023-02-12T00:08:56;47684.38;;;-141.97;42.91
7018;BME280;3549;42.162;24.726;2023-02-12T00:11:27;47692.06;;;-141.97;43.30
7018;BME280;3549;42.162;24.726;2023-02-12T00:13:53;47649.78;;;-141.97;43.15
7018;BME280;3549;42.162;24.726;2023-02-12T00:16:22;47657.47;;;-141.97;43.23
7018;BME280;3549;42.162;24.726;2023-02-12T00:18:50;47647.84;;;-141.97;43.75
7018;BME280;3549;42.162;24.726;2023-02-12T00:21:16;47661.31;;;-141.97;44.48
7018;BME280;3549;42.162;24.726;2023-02-12T00:23:42;47655.53;;;-141.97;44.74
7018;BME280;3549;42.162;24.726;2023-02-12T00:26:18;47619.03;;;-141.97;44.96
7018;BME280;3549;42.162;24.726;2023-02-12T00:28:44;47580.59;;;-141.97;45.21
7018;BME280;3549;42.162;24.726;2023-02-12T00:31:13;47655.53;;;-141.97;45.57
7018;BME280;3549;42.162;24.726;2023-02-12T00:33:39;47638.25;;;-141.97;45.83
7018;BME280;3549;42.162;24.726;2023-02-12T00:36:05;47549.84;;;-141.97;45.38
7018;BME280;3549;42.162;24.726;2023-02-12T00:38:30;47638.25;;;-141.97;45.46
7018;BME280;3549;42.162;24.726;2023-02-12T00:40:56;47617.09;;;-141.97;45.75
7018;BME280;3549;42.162;24.726;2023-02-12T00:43:21;47653.63;;;-141.97;45.64
7018;BME280;3549;42.162;24.726;2023-02-12T00:45:47;47665.16;;;-141.97;45.64
7018;BME280;3549;42.162;24.726;2023-02-12T00:48:13;47645.94;;;-141.97;46.06
7018;BME280;3549;42.162;24.726;2023-02-12T00:50:39;47688.22;;;-141.97;45.86
7018;BME280;3549;42.162;24.726;2023-02-12T00:53:06;47657.47;;;-141.97;44.85
7018;BME280;3549;42.162;24.726;2023-02-12T00:55:32;47611.34;;;-141.97;43.65
7018;BME280;3549;42.162;24.726;2023-02-12T00:57:58;47657.47;;;-141.97;42.28
7018;BME280;3549;42.162;24.726;2023-02-12T01:00:23;47628.63;;;-141.97;41.27
7018;BME280;3549;42.162;24.726;2023-02-12T01:02:49;47642.09;;;-141.97;40.21
7018;BME280;3549;42.162;24.726;2023-02-12T01:05:14;47663.22;;;-141.97;39.61
7018;BME280;3549;42.162;24.726;2023-02-12T01:07:40;47669.00;;;-141.97;39.14
7018;BME280;3549;42.162;24.726;2023-02-12T01:10:06;47638.25;;;-141.97;38.85
7018;BME280;3549;42.162;24.726;2023-02-12T01:12:32;47613.25;;;-141.97;38.75
7018;BME280;3549;42.162;24.726;2023-02-12T01:14:57;47588.28;;;-141.97;38.54
7018;BME280;3549;42.162;24.726;2023-02-12T01:17:22;47661.31;;;-141.97;38.53
7018;BME280;3549;42.162;24.726;2023-02-12T01:19:48;47557.53;;;-141.97;38.16
7018;BME280;3549;42.162;24.726;2023-02-12T01:22:13;47644.00;;;-141.97;37.94
7018;BME280;3549;42.162;24.726;2023-02-12T01:24:39;47626.72;;;-141.97;37.77
7018;BME280;3549;42.162;24.726;2023-02-12T01:27:04;47697.84;;;-141.97;37.64
7018;BME280;3549;42.162;24.726;2023-02-12T01:29:29;47730.50;;;-141.97;37.37
7018;BME280;3549;42.162;24.726;2023-02-12T01:31:55;47653.63;;;-141.97;37.02
7018;BME280;3549;42.162;24.726;2023-02-12T01:34:20;47636.31;;;-141.97;37.10
7018;BME280;3549;42.162;24.726;2023-02-12T01:36:46;47634.41;;;-141.97;36.64
7018;BME280;3549;42.162;24.726;2023-02-12T01:39:11;47665.16;;;-141.97;36.64
7018;BME280;3549;42.162;24.726;2023-02-12T01:41:41;47640.16;;;-141.97;36.62
7018;BME280;3549;42.162;24.726;2023-02-12T01:44:11;47644.00;;;-141.97;36.64
7018;BME280;3549;42.162;24.726;2023-02-12T01:46:38;47715.13;;;-141.97;36.63
7018;BME280;3549;42.162;24.726;2023-02-12T01:49:06;47601.72;;;-141.97;36.27
7018;BME280;3549;42.162;24.726;2023-02-12T01:51:33;47665.16;;;-141.97;36.07
7018;BME280;3549;42.162;24.726;2023-02-12T01:54:02;47619.03;;;-141.97;35.99
7018;BME280;3549;42.162;24.726;2023-02-12T01:56:29;47674.78;;;-141.97;36.44
7018;BME280;3549;42.162;24.726;2023-02-12T01:58:55;47667.06;;;-141.97;36.07
7018;BME280;3549;42.162;24.726;2023-02-12T02:01:24;47590.19;;;-141.97;36.01
7018;BME280;3549;42.162;24.726;2023-02-12T02:03:54;47686.31;;;-141.97;36.51
7018;BME280;3549;42.162;24.726;2023-02-12T02:06:26;47638.25;;;-141.97;36.58
7018;BME280;3549;42.162;24.726;2023-02-12T02:08:53;47607.50;;;-141.97;36.54
7018;BME280;3549;42.162;24.726;2023-02-12T02:11:19;47607.50;;;-141.97;36.56
7018;BME280;3549;42.162;24.726;2023-02-12T02:14:03;47715.13;;;-141.97;36.40
7018;BME280;3549;42.162;24.726;2023-02-12T02:16:56;47674.78;;;-141.97;36.24
7018;BME280;3549;42.162;24.726;2023-02-12T02:27:41;47638.25;;;-141.97;36.62
7018;BME280;3549;42.162;24.726;2023-02-12T02:35:48;47657.47;;;-141.97;36.78
7018;BME280;3549;42.162;24.726;2023-02-12T02:41:01;47669.00;;;-141.97;36.62
7018;BME280;3549;42.162;24.726;2023-02-12T02:43:33;47730.50;;;-141.97;36.77
7018;BME280;3549;42.162;24.726;2023-02-12T02:46:08;47607.50;;;-141.97;36.76
7018;BME280;3549;42.162;24.726;2023-02-12T02:48:39;47634.41;;;-141.97;37.12
7018;BME280;3549;42.162;24.726;2023-02-12T02:51:12;47644.00;;;-141.97;37.00
7018;BME280;3549;42.162;24.726;2023-02-12T02:53:43;47655.53;;;-141.97;37.13
7018;BME280;3549;42.162;24.726;2023-02-12T02:56:15;47661.31;;;-141.97;37.38
7018;BME280;3549;42.162;24.726;2023-02-12T02:59:06;47630.56;;;-141.97;37.27
7018;BME280;3549;42.162;24.726;2023-02-12T03:01:39;47622.88;;;-141.97;37.51
7018;BME280;3549;42.162;24.726;2023-02-12T03:04:16;47628.63;;;-141.97;37.61
7018;BME280;3549;42.162;24.726;2023-02-12T03:06:57;47676.69;;;-141.97;37.48
7018;BME280;3549;42.162;24.726;2023-02-12T03:09:35;47619.03;;;-141.97;37.63
7018;BME280;3549;42.162;24.726;2023-02-12T03:12:08;47670.91;;;-141.97;37.63
7018;BME280;3549;42.162;24.726;2023-02-12T03:14:38;47649.78;;;-141.97;37.82
7018;BME280;3549;42.162;24.726;2023-02-12T03:17:17;47665.16;;;-141.97;37.78
7018;BME280;3549;42.162;24.726;2023-02-12T03:19:50;47728.59;;;-141.97;37.54
7018;BME280;3549;42.162;24.726;2023-02-12T03:22:21;47544.06;;;-141.97;37.59
7018;BME280;3549;42.162;24.726;2023-02-12T03:24:53;47661.31;;;-141.97;37.33
7018;BME280;3549;42.162;24.726;2023-02-12T03:27:31;47632.47;;;-141.97;37.57
7018;BME280;3549;42.162;24.726;2023-02-12T03:29:58;47605.56;;;-141.97;37.83
7018;BME280;3549;42.162;24.726;2023-02-12T03:32:57;47634.41;;;-141.97;37.29
7018;BME280;3549;42.162;24.726;2023-02-12T03:35:31;47630.56;;;-141.97;37.46
7018;BME280;3549;42.162;24.726;2023-02-12T03:38:25;47655.53;;;-141.97;37.10
7018;BME280;3549;42.162;24.726;2023-02-12T03:41:04;47657.47;;;-141.97;37.00
7018;BME280;3549;42.162;24.726;2023-02-12T03:51:46;47705.53;;;-141.97;36.83
7018;BME280;3549;42.162;24.726;2023-02-12T03:54:14;47722.81;;;-141.97;36.90
7018;BME280;3549;42.162;24.726;2023-02-12T03:56:45;47653.63;;;-141.97;36.71
7018;BME280;3549;42.162;24.726;2023-02-12T03:59:14;47726.66;;;-141.97;36.43
7018;BME280;3549;42.162;24.726;2023-02-12T04:01:40;47620.94;;;-141.97;36.95
7018;BME280;3549;42.162;24.726;2023-02-12T04:04:07;47676.69;;;-141.97;36.84
7018;BME280;3549;42.162;24.726;2023-02-12T04:06:33;47557.53;;;-141.97;37.13
7018;BME280;3549;42.162;24.726;2023-02-12T04:09:08;47649.78;;;-141.97;37.24
7018;BME280;3549;42.162;24.726;2023-02-12T04:17:08;47694.00;;;-141.97;37.34
7018;BME280;3549;42.162;24.726;2023-02-12T04:25:10;47636.31;;;-141.97;36.44
7018;BME280;3549;42.162;24.726;2023-02-12T04:30:27;47634.41;;;-141.97;36.30
7018;BME280;3549;42.162;24.726;2023-02-12T04:33:00;47644.00;;;-141.97;36.31
7018;BME280;3549;42.162;24.726;2023-02-12T04:35:33;47634.41;;;-141.97;35.85
7018;BME280;3549;42.162;24.726;2023-02-12T04:38:08;47624.78;;;-141.97;35.95
7018;BME280;3549;42.162;24.726;2023-02-12T04:40:37;47649.78;;;-141.97;35.98
7018;BME280;3549;42.162;24.726;2023-02-12T04:43:04;47628.63;;;-141.97;35.43
7018;BME280;3549;42.162;24.726;2023-02-12T04:45:32;47661.31;;;-141.97;35.86
7018;BME280;3549;42.162;24.726;2023-02-12T04:47:58;47672.84;;;-141.97;36.03
7018;BME280;3549;42.162;24.726;2023-02-12T04:50:25;47636.31;;;-141.97;35.92
7018;BME280;3549;42.162;24.726;2023-02-12T04:52:51;47619.03;;;-141.97;35.69
7018;BME280;3549;42.162;24.726;2023-02-12T04:55:16;47619.03;;;-141.97;36.05
7018;BME280;3549;42.162;24.726;2023-02-12T04:57:42;47592.13;;;-141.97;36.50
7018;BME280;3549;42.162;24.726;2023-02-12T05:00:11;47678.63;;;-141.97;36.79
7018;BME280;3549;42.162;24.726;2023-02-12T05:02:37;47684.38;;;-141.97;36.77
7018;BME280;3549;42.162;24.726;2023-02-12T05:05:03;47644.00;;;-141.97;36.90
7018;BME280;3549;42.162;24.726;2023-02-12T05:07:28;47690.16;;;-141.97;37.05
7018;BME280;3549;42.162;24.726;2023-02-12T05:09:53;47672.84;;;-141.97;36.79
7018;BME280;3549;42.162;24.726;2023-02-12T05:12:19;47674.78;;;-141.97;36.42
7018;BME280;3549;42.162;24.726;2023-02-12T05:14:44;47638.25;;;-141.97;36.99
7018;BME280;3549;42.162;24.726;2023-02-12T05:17:10;47644.00;;;-141.97;36.96
7018;BME280;3549;42.162;24.726;2023-02-12T05:19:35;47678.63;;;-141.97;37.77
7018;BME280;3549;42.162;24.726;2023-02-12T05:22:01;47678.63;;;-141.97;37.96
7018;BME280;3549;42.162;24.726;2023-02-12T05:24:26;47676.69;;;-141.97;37.77
7018;BME280;3549;42.162;24.726;2023-02-12T05:26:52;47669.00;;;-141.97;37.97
7018;BME280;3549;42.162;24.726;2023-02-12T05:29:17;47638.25;;;-141.97;37.86
7018;BME280;3549;42.162;24.726;2023-02-12T05:31:43;47603.66;;;-141.97;38.12
7018;BME280;3549;42.162;24.726;2023-02-12T05:34:10;47669.00;;;-141.97;37.67
7018;BME280;3549;42.162;24.726;2023-02-12T05:36:36;47638.25;;;-141.97;37.56
7018;BME280;3549;42.162;24.726;2023-02-12T05:39:02;47653.63;;;-141.97;37.36
7018;BME280;3549;42.162;24.726;2023-02-12T05:41:27;47557.53;;;-141.97;37.48
7018;BME280;3549;42.162;24.726;2023-02-12T05:43:53;47672.84;;;-141.97;37.17
7018;BME280;3549;42.162;24.726;2023-02-12T05:46:20;47628.63;;;-141.97;37.08
7018;BME280;3549;42.162;24.726;2023-02-12T05:48:46;47611.34;;;-141.97;36.70
7018;BME280;3549;42.162;24.726;2023-02-12T05:51:14;47695.91;;;-141.97;36.08
7018;BME280;3549;42.162;24.726;2023-02-12T05:53:40;47692.06;;;-141.97;36.41
7018;BME280;3549;42.162;24.726;2023-02-12T05:56:17;47636.31;;;-141.97;36.21
7018;BME280;3549;42.162;24.726;2023-02-12T05:58:46;47615.19;;;-141.97;36.17
7018;BME280;3549;42.162;24.726;2023-02-12T06:01:36;47657.47;;;-141.97;36.06
7018;BME280;3549;42.162;24.726;2023-02-12T06:04:04;47676.69;;;-141.97;36.48
7018;BME280;3549;42.162;24.726;2023-02-12T06:06:30;47599.81;;;-141.97;36.37
7018;BME280;3549;42.162;24.726;2023-02-12T06:08:56;47599.81;;;-141.97;36.16
7018;BME280;3549;42.162;24.726;2023-02-12T06:11:22;47684.38;;;-141.97;35.90
7018;BME280;3549;42.162;24.726;2023-02-12T06:13:48;47688.22;;;-141.97;36.31
7018;BME280;3549;42.162;24.726;2023-02-12T06:18:41;47728.59;;;-141.97;36.47
7018;BME280;3549;42.162;24.726;2023-02-12T06:21:07;47715.13;;;-141.97;36.26
7018;BME280;3549;42.162;24.726;2023-02-12T06:23:32;47669.00;;;-141.97;36.45
7018;BME280;3549;42.162;24.726;2023-02-12T06:25:58;47628.63;;;-141.97;36.25
7018;BME280;3549;42.162;24.726;2023-02-12T06:28:23;47630.56;;;-141.97;36.02
7018;BME280;3549;42.162;24.726;2023-02-12T06:30:49;47638.25;;;-141.97;36.50
7018;BME280;3549;42.162;24.726;2023-02-12T06:33:14;47644.00;;;-141.97;36.20
7018;BME280;3549;42.162;24.726;2023-02-12T06:35:39;47553.69;;;-141.97;36.14
7018;BME280;3549;42.162;24.726;2023-02-12T06:38:05;47626.72;;;-141.97;36.18
7018;BME280;3549;42.162;24.726;2023-02-12T06:40:31;47703.59;;;-141.97;36.07
7018;BME280;3549;42.162;24.726;2023-02-12T06:42:57;47626.72;;;-141.97;36.26
7018;BME280;3549;42.162;24.726;2023-02-12T06:45:22;47726.66;;;-141.97;36.19
7018;BME280;3549;42.162;24.726;2023-02-12T06:47:48;47722.81;;;-141.97;36.51
7018;BME280;3549;42.162;24.726;2023-02-12T06:50:13;47661.31;;;-141.97;36.70
7018;BME280;3549;42.162;24.726;2023-02-12T06:52:38;47738.19;;;-141.97;36.65
7018;BME280;3549;42.162;24.726;2023-02-12T06:55:04;47546.00;;;-141.97;36.75
7018;BME280;3549;42.162;24.726;2023-02-12T06:57:29;47680.53;;;-141.97;36.68
7018;BME280;3549;42.162;24.726;2023-02-12T06:59:55;47615.19;;;-141.97;36.67
7018;BME280;3549;42.162;24.726;2023-02-12T07:02:21;47724.75;;;-141.97;36.64
7018;BME280;3549;42.162;24.726;2023-02-12T07:04:46;47657.47;;;-141.97;36.90
7018;BME280;3549;42.162;24.726;2023-02-12T07:07:12;47705.53;;;-141.97;37.26
7018;BME280;3549;42.162;24.726;2023-02-12T07:09:37;47638.25;;;-141.97;37.16
7018;BME280;3549;42.162;24.726;2023-02-12T07:12:02;47561.38;;;-141.97;37.40
7018;BME280;3549;42.162;24.726;2023-02-12T07:14:28;47511.38;;;-141.97;37.85
7018;BME280;3549;42.162;24.726;2023-02-12T07:16:54;47642.09;;;-141.97;37.89
7018;BME280;3549;42.162;24.726;2023-02-12T07:19:20;47703.59;;;-141.97;38.08
7018;BME280;3549;42.162;24.726;2023-02-12T07:21:46;47607.50;;;-141.97;37.95
7018;BME280;3549;42.162;24.726;2023-02-12T07:24:13;47688.22;;;-141.97;38.06
7018;BME280;3549;42.162;24.726;2023-02-12T07:26:39;47751.66;;;-141.97;38.46
7018;BME280;3549;42.162;24.726;2023-02-12T07:29:05;47620.94;;;-141.97;38.21
7018;BME280;3549;42.162;24.726;2023-02-12T07:31:31;47615.19;;;-141.97;37.97
7018;BME280;3549;42.162;24.726;2023-02-12T07:33:58;47655.53;;;-141.97;38.18
7018;BME280;3549;42.162;24.726;2023-02-12T07:36:25;47642.09;;;-141.97;38.42
7018;BME280;3549;42.162;24.726;2023-02-12T07:38:51;47694.00;;;-141.97;38.18
7018;BME280;3549;42.162;24.726;2023-02-12T07:41:20;47670.91;;;-141.97;38.08
7018;BME280;3549;42.162;24.726;2023-02-12T07:43:47;47599.81;;;-141.97;38.06
7018;BME280;3549;42.162;24.726;2023-02-12T07:46:18;47636.31;;;-141.97;38.21
7018;BME280;3549;42.162;24.726;2023-02-12T07:48:45;47605.56;;;-141.97;38.46
7018;BME280;3549;42.162;24.726;2023-02-12T07:51:14;47638.25;;;-141.97;38.22
7018;BME280;3549;42.162;24.726;2023-02-12T07:53:40;47680.53;;;-141.97;37.95
7018;BME280;3549;42.162;24.726;2023-02-12T07:56:12;47622.88;;;-141.97;37.80
7018;BME280;3549;42.162;24.726;2023-02-12T07:58:39;47615.19;;;-141.97;38.09
7018;BME280;3549;42.162;24.726;2023-02-12T08:01:16;47672.84;;;-141.97;37.95
7018;BME280;3549;42.162;24.726;2023-02-12T08:03:42;47730.50;;;-141.97;38.23
7018;BME280;3549;42.162;24.726;2023-02-12T08:06:13;47709.38;;;-141.97;38.13
7018;BME280;3549;42.162;24.726;2023-02-12T08:08:39;47726.66;;;-141.97;38.15
7018;BME280;3549;42.162;24.726;2023-02-12T08:11:09;47599.81;;;-141.97;38.61
7018;BME280;3549;42.162;24.726;2023-02-12T08:13:35;47644.00;;;-141.97;38.66
7018;BME280;3549;42.162;24.726;2023-02-12T08:16:03;47732.44;;;-141.97;38.51
7018;BME280;3549;42.162;24.726;2023-02-12T08:18:30;47651.69;;;-141.97;39.05
7018;BME280;3549;42.162;24.726;2023-02-12T08:21:00;47676.69;;;-141.97;39.03
7018;BME280;3549;42.162;24.726;2023-02-12T08:23:26;47595.97;;;-141.97;39.41
7018;BME280;3549;42.162;24.726;2023-02-12T08:26:25;47663.22;;;-141.97;39.48
7018;BME280;3549;42.162;24.726;2023-02-12T08:29:01;47709.38;;;-141.97;39.68
7018;BME280;3549;42.162;24.726;2023-02-12T08:31:28;47653.63;;;-141.97;40.03
7018;BME280;3549;42.162;24.726;2023-02-12T08:33:55;47659.38;;;-141.97;39.97
7018;BME280;3549;42.162;24.726;2023-02-12T08:36:26;47588.28;;;-141.97;40.00
7018;BME280;3549;42.162;24.726;2023-02-12T08:38:51;47695.91;;;-141.97;40.63
7018;BME280;3549;42.162;24.726;2023-02-12T08:41:20;47642.09;;;-141.97;41.04
7018;BME280;3549;42.162;24.726;2023-02-12T08:43:47;47651.69;;;-141.97;41.25
7018;BME280;3549;42.162;24.726;2023-02-12T08:46:16;47636.31;;;-141.97;41.56
7018;BME280;3549;42.162;24.726;2023-02-12T08:48:43;47659.38;;;-141.97;41.55
7018;BME280;3549;42.162;24.726;2023-02-12T08:51:14;47609.41;;;-141.97;41.79
7018;BME280;3549;42.162;24.726;2023-02-12T08:53:41;47657.47;;;-141.97;42.57
7018;BME280;3549;42.162;24.726;2023-02-12T08:56:08;47661.31;;;-141.97;42.52
7018;BME280;3549;42.162;24.726;2023-02-12T08:58:35;47726.66;;;-141.97;43.15
7018;BME280;3549;42.162;24.726;2023-02-12T09:01:01;47576.75;;;-141.97;43.17
7018;BME280;3549;42.162;24.726;2023-02-12T09:03:26;47638.25;;;-141.97;43.54
7018;BME280;3549;42.162;24.726;2023-02-12T09:05:52;47651.69;;;-141.97;43.61
7018;BME280;3549;42.162;24.726;2023-02-12T09:08:18;47755.50;;;-141.97;43.75
7018;BME280;3549;42.162;24.726;2023-02-12T09:10:44;47655.53;;;-141.97;43.67
7018;BME280;3549;42.162;24.726;2023-02-12T09:13:11;47686.31;;;-141.97;43.79
7018;BME280;3549;42.162;24.726;2023-02-12T09:15:41;47642.09;;;-141.97;43.28
7018;BME280;3549;42.162;24.726;2023-02-12T09:18:07;47565.22;;;-141.97;43.26
7018;BME280;3549;42.162;24.726;2023-02-12T09:20:36;47620.94;;;-141.97;43.01
7018;BME280;3549;42.162;24.726;2023-02-12T09:23:02;47574.81;;;-141.97;43.35
7018;BME280;3549;42.162;24.726;2023-02-12T09:25:27;47622.88;;;-141.97;42.66
7018;BME280;3549;42.162;24.726;2023-02-12T09:27:54;47665.16;;;-141.97;42.48
7018;BME280;3549;42.162;24.726;2023-02-12T09:30:21;47659.38;;;-141.97;42.71
7018;BME280;3549;42.162;24.726;2023-02-12T09:32:46;47584.44;;;-141.97;42.17
7018;BME280;3549;42.162;24.726;2023-02-12T09:35:12;47740.13;;;-141.97;42.04
7018;BME280;3549;42.162;24.726;2023-02-12T09:37:38;47665.16;;;-141.97;42.17
7018;BME280;3549;42.162;24.726;2023-02-12T09:40:22;47655.53;;;-141.97;41.86
7018;BME280;3549;42.162;24.726;2023-02-12T09:43:14;47753.56;;;-141.97;42.39
7018;BME280;3549;42.162;24.726;2023-02-12T09:46:04;47680.53;;;-141.97;42.22
7018;BME280;3549;42.162;24.726;2023-02-12T09:48:58;47647.84;;;-141.97;42.53
7018;BME280;3549;42.162;24.726;2023-02-12T09:51:27;47680.53;;;-141.97;42.25
7018;BME280;3549;42.162;24.726;2023-02-12T09:54:14;47672.84;;;-141.97;41.49
7018;BME280;3549;42.162;24.726;2023-02-12T09:56:46;47638.25;;;-141.97;40.87
7018;BME280;3549;42.162;24.726;2023-02-12T09:59:18;47649.78;;;-141.97;40.34
7018;BME280;3549;42.162;24.726;2023-02-12T10:01:58;47607.50;;;-141.97;39.59
7018;BME280;3549;42.162;24.726;2023-02-12T10:04:24;47682.47;;;-141.97;37.83
7018;BME280;3549;42.162;24.726;2023-02-12T10:07:03;47703.59;;;-141.97;37.67
7018;BME280;3549;42.162;24.726;2023-02-12T10:09:49;47753.56;;;-141.97;37.62
7018;BME280;3549;42.162;24.726;2023-02-12T10:12:38;47661.31;;;-141.97;36.79
7018;BME280;3549;42.162;24.726;2023-02-12T10:15:30;47657.47;;;-141.97;36.78
7018;BME280;3549;42.162;24.726;2023-02-12T10:18:13;47626.72;;;-141.97;35.83
7018;BME280;3549;42.162;24.726;2023-02-12T10:26:27;47680.53;;;-141.97;35.88
7018;BME280;3549;42.162;24.726;2023-02-12T10:29:18;47667.06;;;-141.97;35.11
7018;BME280;3549;42.162;24.726;2023-02-12T10:31:45;47665.16;;;-141.97;35.11
7018;BME280;3549;42.162;24.726;2023-02-12T10:34:19;47634.41;;;-141.97;34.55
7018;BME280;3549;42.162;24.726;2023-02-12T10:36:50;47603.66;;;-141.97;33.54
7018;BME280;3549;42.162;24.726;2023-02-12T10:42:44;47767.03;;;-141.97;34.73
7018;BME280;3549;42.162;24.726;2023-02-12T10:45:17;47649.78;;;-141.97;35.74
7018;BME280;3549;42.162;24.726;2023-02-12T10:47:44;47626.72;;;-141.97;35.75
7018;BME280;3549;42.162;24.726;2023-02-12T10:53:00;47661.31;;;-141.97;36.32
7018;BME280;3549;42.162;24.726;2023-02-12T10:55:30;47615.19;;;-141.97;36.73
7018;BME280;3549;42.162;24.726;2023-02-12T10:57:57;47699.75;;;-141.97;36.64
7018;BME280;3549;42.162;24.726;2023-02-12T11:00:31;47667.06;;;-141.97;36.06
7018;BME280;3549;42.162;24.726;2023-02-12T11:05:25;47644.00;;;-141.97;36.24
7018;BME280;3549;42.162;24.726;2023-02-12T11:07:52;47622.88;;;-141.97;35.83
7018;BME280;3549;42.162;24.726;2023-02-12T11:10:27;47649.78;;;-141.97;35.54
7018;BME280;3549;42.162;24.726;2023-02-12T11:12:53;47651.69;;;-141.97;35.58
7018;BME280;3549;42.162;24.726;2023-02-12T11:15:23;47711.28;;;-141.97;35.75
7018;BME280;3549;42.162;24.726;2023-02-12T11:18:00;47645.94;;;-141.97;35.80
7018;BME280;3549;42.162;24.726;2023-02-12T11:20:27;47642.09;;;-141.97;35.66
7018;BME280;3549;42.162;24.726;2023-02-12T11:23:01;47640.16;;;-141.97;35.35
7018;BME280;3549;42.162;24.726;2023-02-12T11:25:30;47553.69;;;-141.97;35.29
7018;BME280;3549;42.162;24.726;2023-02-12T11:28:02;47645.94;;;-141.97;35.60
7018;BME280;3549;42.162;24.726;2023-02-12T11:30:29;47576.75;;;-141.97;35.29
7018;BME280;3549;42.162;24.726;2023-02-12T11:33:13;47592.13;;;-141.97;35.81
7018;BME280;3549;42.162;24.726;2023-02-12T11:35:48;47619.03;;;-141.97;35.55
7018;BME280;3549;42.162;24.726;2023-02-12T11:38:22;47718.97;;;-141.97;35.83
7018;BME280;3549;42.162;24.726;2023-02-12T11:40:48;47592.13;;;-141.97;35.49
7018;BME280;3549;42.162;24.726;2023-02-12T11:43:17;47711.28;;;-141.97;35.49
7018;BME280;3549;42.162;24.726;2023-02-12T11:45:46;47722.81;;;-141.97;34.70
7018;BME280;3549;42.162;24.726;2023-02-12T11:48:29;47634.41;;;-141.97;35.30
7018;BME280;3549;42.162;24.726;2023-02-12T11:50:57;47734.34;;;-141.97;35.30
7018;BME280;3549;42.162;24.726;2023-02-12T11:55:55;47609.41;;;-141.97;36.18
7018;BME280;3549;42.162;24.726;2023-02-12T11:58:23;47549.84;;;-141.97;35.72
7018;BME280;3549;42.162;24.726;2023-02-12T12:06:27;47640.16;;;-141.97;35.83
7018;BME280;3549;42.162;24.726;2023-02-12T12:09:01;47649.78;;;-141.97;35.82
7018;BME280;3549;42.162;24.726;2023-02-12T12:11:42;47597.88;;;-141.97;35.52
7018;BME280;3549;42.162;24.726;2023-02-12T12:14:22;47640.16;;;-141.97;35.82
7018;BME280;3549;42.162;24.726;2023-02-12T12:17:02;47649.78;;;-141.97;36.34
7018;BME280;3549;42.162;24.726;2023-02-12T12:20:04;47676.69;;;-141.97;35.81
7018;BME280;3549;42.162;24.726;2023-02-12T12:25:30;47597.88;;;-141.97;35.23
7018;BME280;3549;42.162;24.726;2023-02-12T12:28:32;47559.44;;;-141.97;35.92
7018;BME280;3549;42.162;24.726;2023-02-12T12:31:19;47622.88;;;-141.97;35.55
7018;BME280;3549;42.162;24.726;2023-02-12T12:33:57;47647.84;;;-141.97;35.25
7018;BME280;3549;42.162;24.726;2023-02-12T12:45:45;47653.63;;;-141.97;35.34
7018;BME280;3549;42.162;24.726;2023-02-12T12:56:47;47640.16;;;-141.97;34.93
7018;BME280;3549;42.162;24.726;2023-02-12T13:09:44;47651.69;;;-141.97;35.52
7018;BME280;3549;42.162;24.726;2023-02-12T13:12:36;47607.50;;;-141.97;35.36
7018;BME280;3549;42.162;24.726;2023-02-12T13:17:56;47640.16;;;-141.97;35.30
7018;BME280;3549;42.162;24.726;2023-02-12T13:20:33;47667.06;;;-141.97;35.14
7018;BME280;3549;42.162;24.726;2023-02-12T13:23:13;47638.25;;;-141.97;35.40
7018;BME280;3549;42.162;24.726;2023-02-12T13:25:51;47657.47;;;-141.97;35.75
7018;BME280;3549;42.162;24.726;2023-02-12T13:28:34;47551.75;;;-141.97;36.13
7018;BME280;3549;42.162;24.726;2023-02-12T13:31:05;47638.25;;;-141.97;35.74
7018;BME280;3549;42.162;24.726;2023-02-12T13:33:40;47726.66;;;-141.97;35.80
7018;BME280;3549;42.162;24.726;2023-02-12T13:36:10;47638.25;;;-141.97;35.77
7018;BME280;3549;42.162;24.726;2023-02-12T13:38:41;47772.78;;;-141.97;35.81
7018;BME280;3549;42.162;24.726;2023-02-12T13:41:09;47634.41;;;-141.97;36.01
7018;BME280;3549;42.162;24.726;2023-02-12T13:44:00;47686.31;;;-141.97;36.59
7018;BME280;3549;42.162;24.726;2023-02-12T13:49:17;47647.84;;;-141.97;36.12
7018;BME280;3549;42.162;24.726;2023-02-12T14:03:24;47592.13;;;-141.97;36.56
7018;BME280;3549;42.162;24.726;2023-02-12T14:08:37;47601.72;;;-141.97;36.74
7018;BME280;3549;42.162;24.726;2023-02-12T14:11:08;47761.25;;;-141.97;36.68
7018;BME280;3549;42.162;24.726;2023-02-12T14:13:57;47642.09;;;-141.97;36.51
7018;BME280;3549;42.162;24.726;2023-02-12T14:24:57;47655.53;;;-141.97;38.93
7018;BME280;3549;42.162;24.726;2023-02-12T14:27:25;47642.09;;;-141.97;39.68
7018;BME280;3549;42.162;24.726;2023-02-12T14:30:02;47642.09;;;-141.97;40.00
7018;BME280;3549;42.162;24.726;2023-02-12T14:37:51;47663.22;;;-141.97;39.85
7018;BME280;3549;42.162;24.726;2023-02-12T14:43:03;47630.56;;;-141.97;40.31
7018;BME280;3549;42.162;24.726;2023-02-12T14:45:46;47628.63;;;-141.97;40.55
7018;BME280;3549;42.162;24.726;2023-02-12T14:51:03;47642.09;;;-141.97;40.84
7018;BME280;3549;42.162;24.726;2023-02-12T14:53:34;47695.91;;;-141.97;41.16
7018;BME280;3549;42.162;24.726;2023-02-12T14:56:02;47615.19;;;-141.97;41.25
7018;BME280;3549;42.162;24.726;2023-02-12T14:58:28;47595.97;;;-141.97;41.18
7018;BME280;3549;42.162;24.726;2023-02-12T15:00:58;47743.97;;;-141.97;41.28
7018;BME280;3549;42.162;24.726;2023-02-12T15:03:31;47642.09;;;-141.97;41.13
7018;BME280;3549;42.162;24.726;2023-02-12T15:06:06;47647.84;;;-141.97;41.21
7018;BME280;3549;42.162;24.726;2023-02-12T15:09:00;47622.88;;;-141.97;41.42
7018;BME280;3549;42.162;24.726;2023-02-12T15:14:03;47692.06;;;-141.97;41.97
7018;BME280;3549;42.162;24.726;2023-02-12T15:19:33;47578.66;;;-141.97;42.20
7018;BME280;3549;42.162;24.726;2023-02-12T15:22:02;47611.34;;;-141.97;41.92
7018;BME280;3549;42.162;24.726;2023-02-12T15:24:27;47665.16;;;-141.97;41.92
7018;BME280;3549;42.162;24.726;2023-02-12T15:26:57;47615.19;;;-141.97;42.30